createdAt,value
2022-11-18T00:01:29.826Z,93439.44
2022-11-18T00:03:57.845Z,93432.84
2022-11-18T00:06:28.503Z,93432.03
2022-11-18T00:08:57.129Z,93428.44
2022-11-18T00:11:44.745Z,93414.81
2022-11-18T00:14:23.419Z,93437.81
2022-11-18T00:16:54.429Z,93439.44
2022-11-18T00:19:24.350Z,93444.41
2022-11-18T00:21:52.512Z,93437.81
2022-11-18T00:24:20.919Z,93433.00
2022-11-18T00:26:49.427Z,93435.00
2022-11-18T00:29:19.371Z,93430.41
2022-11-18T00:31:48.202Z,93437.00
2022-11-18T00:34:17.854Z,93429.16
2022-11-18T00:36:46.491Z,93438.91
2022-11-18T00:39:16.960Z,93436.75
2022-11-18T00:42:03.468Z,93428.31
2022-11-18T00:44:33.071Z,93438.13
2022-11-18T00:47:01.072Z,93444.25
2022-11-18T00:49:28.975Z,93433.63
2022-11-18T00:51:56.922Z,93428.31
2022-11-18T00:54:24.814Z,93444.84
2022-11-18T00:56:52.752Z,93445.47
2022-11-18T00:59:21.010Z,93422.09
2022-11-18T01:01:50.509Z,93436.34
2022-11-18T01:04:18.692Z,93434.13
2022-11-18T01:06:46.621Z,93432.69
2022-11-18T01:09:14.756Z,93436.91
2022-11-18T01:12:00.252Z,93444.31
2022-11-18T01:14:29.399Z,93440.75
2022-11-18T01:16:59.339Z,93438.97
2022-11-18T01:19:27.827Z,93436.63
2022-11-18T01:21:56.590Z,93429.47
2022-11-18T01:24:24.570Z,93438.88
2022-11-18T01:26:52.481Z,93432.69
2022-11-18T01:29:20.452Z,93432.69
2022-11-18T01:32:09.340Z,93436.22
2022-11-18T01:34:38.116Z,93441.53
2022-11-18T01:37:06.094Z,93433.75
2022-11-18T01:39:34.083Z,93437.69
2022-11-18T01:42:02.040Z,93435.97
2022-11-18T01:44:59.694Z,93437.81
2022-11-18T01:47:31.865Z,93431.28
2022-11-18T01:50:02.852Z,93442.94
2022-11-18T01:52:32.243Z,93434.00
2022-11-18T01:55:06.752Z,93431.72
2022-11-18T01:57:35.325Z,93436.88
2022-11-18T02:00:06.571Z,93445.59
2022-11-18T02:02:36.138Z,93425.56
2022-11-18T02:05:07.341Z,93430.41
2022-11-18T02:07:38.661Z,93439.13
2022-11-18T02:10:08.111Z,93436.31
2022-11-18T02:12:37.421Z,93438.31
2022-11-18T02:15:06.367Z,93436.69
2022-11-18T02:17:51.868Z,93438.66
2022-11-18T02:20:33.279Z,93424.84
2022-11-18T02:23:43.349Z,93430.28
2022-11-18T02:26:37.400Z,93430.72
2022-11-18T02:29:09.905Z,93424.31
2022-11-18T02:31:46.378Z,93405.25
2022-11-18T02:34:23.250Z,93425.13
2022-11-18T02:36:56.502Z,93406.28
2022-11-18T02:39:32.006Z,93418.22
2022-11-18T02:42:05.648Z,93423.47
2022-11-18T02:44:37.948Z,93428.13
2022-11-18T02:47:09.804Z,93420.88
2022-11-18T02:49:43.136Z,93409.06
2022-11-18T02:52:13.113Z,93429.28
2022-11-18T02:54:44.473Z,93422.25
2022-11-18T02:57:13.157Z,93419.13
2022-11-18T02:59:42.491Z,93425.47
2022-11-18T03:02:16.331Z,93416.47
2022-11-18T03:04:45.427Z,93428.50
2022-11-18T03:07:19.445Z,93413.00
2022-11-18T03:09:49.319Z,93439.28
2022-11-18T03:12:24.168Z,93421.00
2022-11-18T03:15:02.982Z,93431.53
2022-11-18T03:17:45.848Z,93429.03
2022-11-18T03:20:22.135Z,93432.88
2022-11-18T03:22:55.317Z,93433.38
2022-11-18T03:25:30.101Z,93426.09
2022-11-18T03:28:04.394Z,93413.09
2022-11-18T03:30:37.482Z,93423.59
2022-11-18T03:33:11.533Z,93418.44
2022-11-18T03:35:42.946Z,93424.84
2022-11-18T03:38:15.853Z,93418.78
2022-11-18T03:40:48.176Z,93421.81
2022-11-18T03:43:21.223Z,93429.28
2022-11-18T03:45:53.089Z,93424.91
2022-11-18T03:48:27.772Z,93416.13
2022-11-18T03:51:00.759Z,93414.97
2022-11-18T03:53:34.100Z,93406.78
2022-11-18T03:56:10.550Z,93395.72
2022-11-18T03:58:52.818Z,93399.00
2022-11-18T04:01:27.511Z,93391.09
2022-11-18T04:03:55.853Z,93403.22
2022-11-18T04:06:36.572Z,93391.53
2022-11-18T04:09:09.944Z,93411.16
2022-11-18T04:12:03.833Z,93407.56
2022-11-18T04:14:33.205Z,93411.31
2022-11-18T04:17:08.700Z,93402.31
2022-11-18T04:19:36.895Z,93401.59
2022-11-18T04:22:04.977Z,93404.81
2022-11-18T04:24:33.217Z,93417.03
2022-11-18T04:27:02.609Z,93410.34
2022-11-18T04:29:30.689Z,93410.00
2022-11-18T04:31:58.724Z,93428.34
2022-11-18T04:34:28.364Z,93417.91
2022-11-18T04:36:56.491Z,93416.94
2022-11-18T04:39:24.583Z,93430.09
2022-11-18T04:41:58.435Z,93432.34
2022-11-18T04:44:27.794Z,93438.66
2022-11-18T04:46:56.975Z,93438.31
2022-11-18T04:49:25.921Z,93436.16
2022-11-18T04:51:55.443Z,93440.16
2022-11-18T04:54:24.447Z,93429.06
2022-11-18T04:56:52.944Z,93426.72
2022-11-18T04:59:23.860Z,93428.22
2022-11-18T05:01:52.386Z,93430.91
2022-11-18T05:04:23.317Z,93435.91
2022-11-18T05:06:51.838Z,93422.00
2022-11-18T05:09:23.947Z,93433.84
2022-11-18T05:12:26.263Z,93425.66
2022-11-18T05:14:54.245Z,93426.88
2022-11-18T05:17:22.141Z,93430.19
2022-11-18T05:19:50.084Z,93437.13
2022-11-18T05:22:18.076Z,93434.63
2022-11-18T05:24:47.585Z,93435.25
2022-11-18T05:27:16.108Z,93426.03
2022-11-18T05:29:44.544Z,93427.69
2022-11-18T05:32:12.630Z,93418.28
2022-11-18T05:34:41.359Z,93434.38
2022-11-18T05:37:09.378Z,93425.66
2022-11-18T05:39:37.945Z,93443.03
2022-11-18T05:42:25.009Z,93440.69
2022-11-18T05:44:58.100Z,93413.19
2022-11-18T05:47:26.917Z,93437.41
2022-11-18T05:49:54.932Z,93426.16
2022-11-18T05:52:22.853Z,93426.25
2022-11-18T05:54:52.655Z,93409.69
2022-11-18T05:57:21.970Z,93420.53
2022-11-18T05:59:49.898Z,93427.22
2022-11-18T06:02:22.620Z,93425.69
2022-11-18T06:04:54.241Z,93422.09
2022-11-18T06:07:27.454Z,93420.22
2022-11-18T06:10:05.193Z,93421.22
2022-11-18T06:12:38.759Z,93434.94
2022-11-18T06:15:13.287Z,93418.56
2022-11-18T06:17:46.136Z,93430.75
2022-11-18T06:20:14.230Z,93422.91
2022-11-18T06:22:46.580Z,93433.66
2022-11-18T06:25:15.877Z,93424.13
2022-11-18T06:27:46.682Z,93396.28
2022-11-18T06:30:15.757Z,93408.47
2022-11-18T06:32:43.968Z,93382.13
2022-11-18T06:35:11.977Z,93402.47
2022-11-18T06:37:40.227Z,93408.84
2022-11-18T06:40:09.717Z,93412.56
2022-11-18T06:42:55.034Z,93411.16
2022-11-18T06:45:29.870Z,93415.84
2022-11-18T06:47:57.387Z,93399.00
2022-11-18T06:50:39.110Z,93411.94
2022-11-18T06:53:08.884Z,93427.06
2022-11-18T06:55:37.290Z,93409.97
2022-11-18T06:58:05.305Z,93407.81
2022-11-18T07:00:39.480Z,93407.16
2022-11-18T07:03:07.667Z,93408.38
2022-11-18T07:05:35.847Z,93412.47
2022-11-18T07:08:04.717Z,93414.41
2022-11-18T07:10:32.759Z,93415.88
2022-11-18T07:13:00.966Z,93413.63
2022-11-18T07:15:29.049Z,93406.19
2022-11-18T07:17:58.506Z,93409.06
2022-11-18T07:20:26.775Z,93391.78
2022-11-18T07:22:54.997Z,93391.38
2022-11-18T07:25:23.030Z,93379.00
2022-11-18T07:27:51.176Z,93376.94
2022-11-18T07:30:19.741Z,93367.81
2022-11-18T07:32:47.866Z,93377.00
2022-11-18T07:35:19.152Z,93392.41
2022-11-18T07:37:47.654Z,93385.31
2022-11-18T07:40:16.315Z,93359.03
2022-11-18T07:42:44.504Z,93345.69
2022-11-18T07:45:13.328Z,93365.28
2022-11-18T07:47:41.438Z,93366.75
2022-11-18T07:50:10.165Z,93376.06
2022-11-18T07:52:39.790Z,93365.28
2022-11-18T07:55:09.018Z,93392.63
2022-11-18T07:57:37.175Z,93366.84
2022-11-18T08:00:06.093Z,93366.91
2022-11-18T08:02:34.783Z,93391.00
2022-11-18T08:05:03.232Z,93417.66
2022-11-18T08:07:31.386Z,93433.28
2022-11-18T08:10:00.921Z,93433.63
2022-11-18T08:12:30.844Z,93413.72
2022-11-18T08:14:58.965Z,93424.84
2022-11-18T08:17:27.312Z,93422.56
2022-11-18T08:19:55.621Z,93415.25
2022-11-18T08:22:23.717Z,93400.50
2022-11-18T08:24:51.740Z,93400.16
2022-11-18T08:27:21.468Z,93380.16
2022-11-18T08:29:49.941Z,93384.25
2022-11-18T08:32:21.019Z,93386.78
2022-11-18T08:34:49.486Z,93388.56
2022-11-18T08:37:18.626Z,93382.00
2022-11-18T08:39:52.762Z,93387.00
2022-11-18T08:42:24.446Z,93364.69
2022-11-18T08:45:51.607Z,93372.59
2022-11-18T08:48:20.407Z,93369.44
2022-11-18T08:50:48.596Z,93342.72
2022-11-18T08:53:16.780Z,93355.91
2022-11-18T08:55:44.948Z,93346.97
2022-11-18T08:58:14.590Z,93326.59
2022-11-18T09:00:44.605Z,93319.84
2022-11-18T09:03:12.732Z,93305.31
2022-11-18T09:05:40.868Z,93303.06
2022-11-18T09:08:11.438Z,93310.91
2022-11-18T09:10:40.307Z,93291.34
2022-11-18T09:13:33.789Z,93308.88
2022-11-18T09:16:01.803Z,93311.69
2022-11-18T09:18:30.681Z,93293.13
2022-11-18T09:21:00.949Z,93299.75
2022-11-18T09:23:29.468Z,93295.53
2022-11-18T09:26:01.443Z,93294.16
2022-11-18T09:28:32.510Z,93298.50
2022-11-18T09:31:06.285Z,93300.88
2022-11-18T09:33:36.499Z,93298.50
2022-11-18T09:36:05.602Z,93273.22
2022-11-18T09:38:34.994Z,93285.00
2022-11-18T09:41:10.048Z,93272.63
2022-11-18T09:43:47.795Z,93285.41
2022-11-18T09:46:26.669Z,93269.63
2022-11-18T09:49:15.437Z,93255.88
2022-11-18T09:51:47.874Z,93224.53
2022-11-18T09:54:22.736Z,93235.09
2022-11-18T09:56:53.365Z,93237.63
2022-11-18T09:59:25.034Z,93237.69
2022-11-18T10:01:59.548Z,93237.09
2022-11-18T10:04:29.770Z,93251.50
2022-11-18T10:09:43.183Z,93233.25
2022-11-18T10:12:24.488Z,93245.94
2022-11-18T10:15:05.360Z,93256.78
2022-11-18T10:18:05.601Z,93263.53
2022-11-18T10:21:02.819Z,93279.41
2022-11-18T10:23:38.093Z,93277.31
2022-11-18T10:26:17.293Z,93273.50
2022-11-18T10:28:45.488Z,93277.31
2022-11-18T10:31:14.177Z,93291.13
2022-11-18T10:33:44.620Z,93273.03
2022-11-18T10:36:29.160Z,93282.06
2022-11-18T10:39:15.365Z,93266.03
2022-11-18T10:41:48.086Z,93274.81
2022-11-18T10:44:37.829Z,93290.97
2022-11-18T10:47:27.589Z,93292.56
2022-11-18T10:49:59.586Z,93268.00
2022-11-18T10:52:28.949Z,93279.19
2022-11-18T10:55:27.749Z,93269.94
2022-11-18T10:57:59.659Z,93243.69
2022-11-18T11:00:41.408Z,93240.34
2022-11-18T11:03:44.031Z,93247.03
2022-11-18T11:06:32.242Z,93247.97
2022-11-18T11:09:04.945Z,93230.53
2022-11-18T11:11:36.763Z,93238.13
2022-11-18T11:17:22.323Z,93265.56
2022-11-18T11:22:42.041Z,93262.00
2022-11-18T11:25:15.071Z,93245.16
2022-11-18T11:28:18.946Z,93248.75
2022-11-18T11:30:53.180Z,93254.38
2022-11-18T11:33:31.159Z,93229.75
2022-11-18T11:36:34.149Z,93198.88
2022-11-18T11:39:14.919Z,93201.72
2022-11-18T11:41:53.116Z,93234.06
2022-11-18T11:44:46.905Z,93254.94
2022-11-18T11:47:46.785Z,93229.44
2022-11-18T11:50:21.969Z,93224.19
2022-11-18T11:53:05.425Z,93236.13
2022-11-18T11:55:46.767Z,93230.97
2022-11-18T11:58:30.848Z,93220.94
2022-11-18T12:01:06.987Z,93229.13
2022-11-18T12:03:51.747Z,93202.50
2022-11-18T12:06:20.787Z,93226.06
2022-11-18T12:09:11.414Z,93226.63
2022-11-18T12:11:49.717Z,93216.66
2022-11-18T12:14:28.831Z,93222.44
2022-11-18T12:17:06.378Z,93213.34
2022-11-18T12:19:40.917Z,93206.44
2022-11-18T12:22:13.330Z,93206.16
2022-11-18T12:24:43.206Z,93180.00
2022-11-18T12:30:26.581Z,93188.16
2022-11-18T12:32:58.333Z,93172.50
2022-11-18T12:35:29.675Z,93188.16
2022-11-18T12:38:03.435Z,93179.66
2022-11-18T12:40:47.207Z,93185.63
2022-11-18T12:44:06.597Z,93184.78
2022-11-18T12:46:52.778Z,93167.81
2022-11-18T12:50:13.094Z,93180.91
2022-11-18T12:52:54.792Z,93165.22
2022-11-18T12:55:35.017Z,93177.25
2022-11-18T12:58:03.274Z,93165.34
2022-11-18T13:00:52.466Z,93145.53
2022-11-18T13:03:29.647Z,93141.44
2022-11-18T13:06:09.530Z,93147.50
2022-11-18T13:08:39.011Z,93150.19
2022-11-18T13:11:33.084Z,93119.81
2022-11-18T13:14:19.924Z,93127.25
2022-11-18T13:17:06.640Z,93131.03
2022-11-18T13:19:36.634Z,93118.38
2022-11-18T13:22:24.573Z,93113.97
2022-11-18T13:24:53.748Z,93133.31
2022-11-18T13:27:36.595Z,93108.91
2022-11-18T13:30:11.700Z,93112.56
2022-11-18T13:32:46.054Z,93128.34
2022-11-18T13:35:19.879Z,93107.25
2022-11-18T13:37:53.128Z,93098.44
2022-11-18T13:40:25.228Z,93080.03
2022-11-18T13:42:53.433Z,93087.22
2022-11-18T13:45:25.098Z,93092.69
2022-11-18T13:47:56.733Z,93090.16
2022-11-18T13:50:32.971Z,93101.72
2022-11-18T13:53:09.381Z,93117.25
2022-11-18T13:55:45.341Z,93114.81
2022-11-18T13:58:55.786Z,93122.91
2022-11-18T14:01:25.812Z,93116.19
2022-11-18T14:03:56.989Z,93113.03
2022-11-18T14:06:31.376Z,93103.78
2022-11-18T14:09:09.671Z,93099.75
2022-11-18T14:11:40.342Z,93101.44
2022-11-18T14:14:11.115Z,93085.81
2022-11-18T14:16:40.881Z,93070.41
2022-11-18T14:19:27.712Z,93077.94
2022-11-18T14:22:07.444Z,93089.78
2022-11-18T14:24:38.464Z,93090.50
2022-11-18T14:27:51.371Z,93089.75
2022-11-18T14:30:41.804Z,93080.69
2022-11-18T14:33:22.439Z,93078.91
2022-11-18T14:36:08.789Z,93087.69
2022-11-18T14:39:03.958Z,93100.53
2022-11-18T14:41:51.356Z,93079.03
2022-11-18T14:44:20.517Z,93073.06
2022-11-18T14:46:52.436Z,93092.69
2022-11-18T14:49:23.279Z,93081.97
2022-11-18T14:51:51.997Z,93094.72
2022-11-18T14:54:26.748Z,93099.81
2022-11-18T14:56:58.739Z,93090.16
2022-11-18T14:59:26.772Z,93101.88
2022-11-18T15:01:56.997Z,93118.22
2022-11-18T15:04:26.222Z,93126.53
2022-11-18T15:06:54.433Z,93141.22
2022-11-18T15:09:23.953Z,93147.53
2022-11-18T15:11:52.025Z,93128.69
2022-11-18T15:14:20.526Z,93117.44
2022-11-18T15:16:48.847Z,93124.31
2022-11-18T15:19:17.656Z,93128.81
2022-11-18T15:21:48.793Z,93123.50
2022-11-18T15:24:17.194Z,93125.91
2022-11-18T15:26:48.120Z,93099.78
2022-11-18T15:29:18.799Z,93087.81
2022-11-18T15:31:46.985Z,93073.22
2022-11-18T15:34:15.857Z,93081.94
2022-11-18T15:36:43.942Z,93075.78
2022-11-18T15:39:13.232Z,93077.16
2022-11-18T15:41:46.881Z,93072.19
2022-11-18T15:44:17.334Z,93082.31
2022-11-18T15:46:48.309Z,93081.94
2022-11-18T15:49:18.168Z,93059.66
2022-11-18T15:51:46.692Z,93070.47
2022-11-18T15:54:14.901Z,93077.69
2022-11-18T15:56:44.044Z,93060.19
2022-11-18T15:59:16.037Z,93045.75
2022-11-18T16:01:50.170Z,93058.75
2022-11-18T16:04:19.942Z,93025.00
2022-11-18T16:10:03.871Z,93046.81
2022-11-18T16:12:47.880Z,93057.09
2022-11-18T16:15:34.632Z,93052.38
2022-11-18T16:18:07.241Z,93028.78
2022-11-18T16:20:35.323Z,93040.16
2022-11-18T16:23:03.375Z,93060.34
2022-11-18T16:25:31.542Z,93089.41
2022-11-18T16:28:07.207Z,93113.63
2022-11-18T16:30:58.721Z,93118.38
2022-11-18T16:33:28.520Z,93108.59
2022-11-18T16:35:56.880Z,93106.59
2022-11-18T16:38:25.029Z,93105.25
2022-11-18T16:40:57.993Z,93109.59
2022-11-18T16:43:26.831Z,93118.41
2022-11-18T16:45:56.468Z,93102.25
2022-11-18T16:48:24.636Z,93104.03
2022-11-18T16:51:19.304Z,93103.53
2022-11-18T16:53:52.722Z,93110.88
2022-11-18T16:56:21.734Z,93108.88
2022-11-18T16:58:50.385Z,93087.03
2022-11-18T17:01:23.277Z,93108.22
2022-11-18T17:03:53.415Z,93102.94
2022-11-18T17:06:24.321Z,93097.72
2022-11-18T17:08:52.363Z,93090.78
2022-11-18T17:11:21.375Z,93104.50
2022-11-18T17:13:53.354Z,93103.59
2022-11-18T17:16:26.009Z,93096.91
2022-11-18T17:18:59.962Z,93067.97
2022-11-18T17:21:33.119Z,93085.09
2022-11-18T17:24:01.223Z,93106.56
2022-11-18T17:26:29.822Z,93057.59
2022-11-18T17:28:58.686Z,93072.25
2022-11-18T17:31:27.353Z,93040.94
2022-11-18T17:34:13.320Z,93045.47
2022-11-18T17:36:43.953Z,93037.84
2022-11-18T17:39:13.750Z,93050.28
2022-11-18T17:41:59.917Z,93058.06
2022-11-18T17:44:30.059Z,93053.00
2022-11-18T17:46:59.769Z,93031.75
2022-11-18T17:49:29.070Z,93038.50
2022-11-18T17:52:00.703Z,93036.59
2022-11-18T17:54:28.947Z,93035.47
2022-11-18T17:56:57.382Z,93033.19
2022-11-18T17:59:26.483Z,93022.50
2022-11-18T18:01:59.271Z,93046.09
2022-11-18T18:04:37.081Z,93043.22
2022-11-18T18:07:06.911Z,93044.41
2022-11-18T18:09:37.142Z,93030.72
2022-11-18T18:12:26.439Z,93018.25
2022-11-18T18:14:56.021Z,93016.94
2022-11-18T18:17:24.079Z,92989.94
2022-11-18T18:19:55.665Z,93007.09
2022-11-18T18:22:26.036Z,93008.94
2022-11-18T18:24:55.733Z,93015.56
2022-11-18T18:27:24.947Z,93027.38
2022-11-18T18:29:53.170Z,93041.34
2022-11-18T18:32:21.273Z,93051.72
2022-11-18T18:34:49.465Z,93041.41
2022-11-18T18:37:23.632Z,93025.63
2022-11-18T18:39:57.195Z,93023.91
2022-11-18T18:45:42.546Z,93036.63
2022-11-18T18:48:11.884Z,93036.84
2022-11-18T18:50:41.149Z,93023.47
2022-11-18T18:53:09.470Z,93039.91
2022-11-18T18:55:44.761Z,93022.56
2022-11-18T18:58:13.714Z,93026.06
2022-11-18T19:00:41.837Z,93031.06
2022-11-18T19:03:10.307Z,93061.22
2022-11-18T19:06:12.706Z,93044.25
2022-11-18T19:08:36.088Z,93044.47
2022-11-18T19:11:08.686Z,93071.59
2022-11-18T19:13:38.951Z,93069.09
2022-11-18T19:16:25.405Z,93080.88
2022-11-18T19:19:07.799Z,93073.84
2022-11-18T19:24:50.535Z,93073.84
2022-11-18T19:27:55.233Z,93074.97
2022-11-18T19:36:19.471Z,93089.53
2022-11-18T19:45:16.168Z,93116.41
2022-11-18T19:50:31.711Z,93129.81
2022-11-18T19:53:22.660Z,93143.53
2022-11-18T19:58:55.401Z,93156.97
2022-11-18T20:01:25.566Z,93165.22
2022-11-18T20:03:56.574Z,93170.00
2022-11-18T20:06:32.165Z,93173.63
2022-11-18T20:09:00.833Z,93199.38
2022-11-18T20:11:41.923Z,93218.84
2022-11-18T20:17:10.350Z,93213.50
2022-11-18T20:19:43.315Z,93215.53
2022-11-18T20:22:14.897Z,93232.25
2022-11-18T20:24:55.808Z,93231.31
2022-11-18T20:27:24.772Z,93227.69
2022-11-18T20:32:52.202Z,93220.75
2022-11-18T20:35:21.529Z,93246.88
2022-11-18T20:38:07.021Z,93244.03
2022-11-18T20:40:37.077Z,93233.00
2022-11-18T20:43:17.404Z,93236.56
2022-11-18T20:46:05.503Z,93218.47
2022-11-18T20:54:54.158Z,93178.38
2022-11-18T20:57:22.756Z,93156.09
2022-11-18T20:59:51.144Z,93161.88
2022-11-18T21:02:20.590Z,93180.72
2022-11-18T21:05:03.085Z,93171.53
2022-11-18T21:07:43.146Z,93158.44
2022-11-18T21:10:14.748Z,93163.53
2022-11-18T21:16:03.317Z,93153.09
2022-11-18T21:18:31.644Z,93169.13
2022-11-18T21:26:55.014Z,93149.63
2022-11-18T21:29:28.096Z,93123.88
2022-11-18T21:32:02.278Z,93126.53
2022-11-18T21:34:31.882Z,93148.69
2022-11-18T21:37:00.472Z,93153.31
2022-11-18T21:39:29.301Z,93160.91
2022-11-18T21:41:59.581Z,93125.47
2022-11-18T21:44:29.499Z,93143.81
2022-11-18T21:46:59.884Z,93165.09
2022-11-18T21:49:29.828Z,93174.16
2022-11-18T21:51:58.563Z,93188.91
2022-11-18T21:54:27.650Z,93176.47
2022-11-18T21:56:59.235Z,93182.25
2022-11-18T21:59:29.065Z,93176.19
2022-11-18T22:01:57.785Z,93171.88
2022-11-18T22:04:43.240Z,93184.28
2022-11-18T22:07:12.102Z,93199.97
2022-11-18T22:09:40.326Z,93205.41
2022-11-18T22:12:11.126Z,93205.84
2022-11-18T22:14:42.294Z,93195.44
2022-11-18T22:17:11.610Z,93207.53
2022-11-18T22:19:43.393Z,93195.50
2022-11-18T22:22:12.060Z,93199.19
2022-11-18T22:24:40.512Z,93213.38
2022-11-18T22:27:11.513Z,93228.94
2022-11-18T22:29:41.317Z,93225.81
2022-11-18T22:32:09.371Z,93229.72
2022-11-18T22:34:37.352Z,93232.28
2022-11-18T22:37:05.744Z,93232.47
2022-11-18T22:39:33.878Z,93225.88
2022-11-18T22:42:19.788Z,93252.25
2022-11-18T22:44:50.423Z,93240.91
2022-11-18T22:47:18.570Z,93249.53
2022-11-18T22:49:46.640Z,93267.53
2022-11-18T22:52:14.632Z,93284.56
2022-11-18T22:54:42.824Z,93282.16
2022-11-18T22:57:10.983Z,93290.38
2022-11-18T22:59:39.074Z,93285.63
2022-11-18T23:02:09.289Z,93303.78
2022-11-18T23:04:37.344Z,93315.41
2022-11-18T23:07:05.532Z,93328.63
2022-11-18T23:09:33.495Z,93328.16
2022-11-18T23:12:18.790Z,93328.28
2022-11-18T23:14:46.937Z,93296.06
2022-11-18T23:17:16.344Z,93299.16
2022-11-18T23:19:44.521Z,93325.78
2022-11-18T23:22:12.993Z,93339.44
2022-11-18T23:24:40.984Z,93364.50
2022-11-18T23:27:09.296Z,93365.09
2022-11-18T23:29:37.908Z,93367.91
2022-11-18T23:32:06.161Z,93348.78
2022-11-18T23:34:35.508Z,93363.53
2022-11-18T23:37:03.421Z,93359.59
2022-11-18T23:39:31.371Z,93383.34
2022-11-18T23:41:59.292Z,93387.13
2022-11-18T23:44:40.986Z,93387.13
2022-11-18T23:47:08.926Z,93414.72
2022-11-18T23:49:38.243Z,93395.13
2022-11-18T23:52:06.581Z,93425.16
2022-11-18T23:54:34.613Z,93418.78
2022-11-18T23:57:04.535Z,93425.81
2022-11-18T23:59:33.346Z,93419.03
